Wetterdaten: Woche 22.10.12 - 28.10.12 (KW43)
Datum Zeit Temp. Innen Temp. Aussen UV X Diff Temp. Feuchte Inne Feuchte Auss Sonnenschein Luftdruck Regen ab 0,1 Wind Sonnenschein T Regendauer Windben
22.10.2012 00:00 21,2 C 14,6 C 0,0 UV-I 0,0 C 61 % 92 % 0 % 1017,1 hPa 0,0 l/m 1,1 km/h (1 Bft) 0,00 h 0,00 h 2,7 km/h (1 Bft)
22.10.2012 01:00 21,2 C 14,6 C 0,0 UV-I 0,0 C 61 % 90 % 0 % 1017,2 hPa 0,0 l/m 0,6 km/h (0 Bft) 0,00 h 0,00 h 0,5 km/h (0 Bft)
22.10.2012 02:00 21,1 C 14,2 C 0,0 UV-I 0,0 C 61 % 90 % 0 % 1017,5 hPa 0,0 l/m 0,7 km/h (0 Bft) 0,00 h 0,00 h 1,4 km/h (1 Bft)
22.10.2012 03:00 20,9 C 13,9 C 0,0 UV-I 0,0 C 61 % 90 % 0 % 1017,6 hPa 0,0 l/m 0,6 km/h (0 Bft) 0,00 h 0,00 h 0,8 km/h (0 Bft)
22.10.2012 04:00 20,8 C 13,6 C 0,0 UV-I 0,0 C 61 % 91 % 0 % 1017,8 hPa 0,0 l/m 0,6 km/h (0 Bft) 0,00 h 0,00 h 1,1 km/h (1 Bft)
22.10.2012 05:00 20,6 C 13,4 C 0,0 UV-I 0,0 C 61 % 91 % 0 % 1018,2 hPa 0,0 l/m 0,8 km/h (0 Bft) 0,00 h 0,00 h 1,5 km/h (1 Bft)
22.10.2012 06:00 20,5 C 13,5 C 0,0 UV-I 0,0 C 61 % 89 % 0 % 1018,2 hPa 0,0 l/m 2,0 km/h (1 Bft) 0,00 h 0,00 h 3,4 km/h (1 Bft)
22.10.2012 07:00 20,4 C 13,2 C 0,0 UV-I 0,0 C 60 % 87 % 0 % 1018,2 hPa 0,0 l/m 1,2 km/h (1 Bft) 0,00 h 0,00 h 2,4 km/h (1 Bft)
22.10.2012 08:00 20,3 C 12,9 C 0,0 UV-I 0,0 C 60 % 87 % 0 % 1018,6 hPa 0,0 l/m 1,4 km/h (1 Bft) 0,00 h 0,00 h 2,1 km/h (1 Bft)
22.10.2012 09:00 20,3 C 13,1 C 0,0 UV-I 1,8 C 60 % 87 % 40 % 1019,1 hPa 0,0 l/m 0,5 km/h (0 Bft) 0,40 h 0,00 h 1,4 km/h (1 Bft)
22.10.2012 10:00 20,5 C 15,0 C 0,4 UV-I 6,1 C 60 % 83 % 100 % 1019,6 hPa 0,0 l/m 3,2 km/h (1 Bft) 1,00 h 0,00 h 6,1 km/h (2 Bft)
22.10.2012 11:00 20,9 C 17,4 C 0,8 UV-I 6,1 C 59 % 76 % 100 % 1020,0 hPa 0,0 l/m 5,7 km/h (1 Bft) 1,00 h 0,00 h 8,0 km/h (2 Bft)
22.10.2012 12:00 21,3 C 19,5 C 1,6 UV-I 6,5 C 59 % 70 % 100 % 1020,2 hPa 0,0 l/m 4,4 km/h (1 Bft) 1,00 h 0,00 h 5,6 km/h (1 Bft)
22.10.2012 13:00 21,9 C 20,9 C 2,3 UV-I 5,5 C 58 % 65 % 100 % 1020,0 hPa 0,0 l/m 3,6 km/h (1 Bft) 1,00 h 0,00 h 5,3 km/h (1 Bft)
22.10.2012 14:00 23,0 C 22,4 C 2,3 UV-I 6,0 C 56 % 61 % 100 % 1021,6 hPa 0,0 l/m 2,4 km/h (1 Bft) 1,00 h 0,00 h 3,7 km/h (1 Bft)
22.10.2012 15:00 23,6 C 22,3 C 0,8 UV-I 2,3 C 54 % 60 % 61 % 1020,3 hPa 0,0 l/m 1,2 km/h (1 Bft) 0,33 h 0,00 h 1,2 km/h (1 Bft)
22.10.2012 16:00 23,6 C 23,3 C 0,4 UV-I 2,5 C 54 % 60 % 72 % 1019,6 hPa 0,0 l/m 0,0 km/h (0 Bft) 0,60 h 0,00 h 0,1 km/h (0 Bft)
22.10.2012 17:00 23,7 C 22,7 C 0,0 UV-I 1,4 C 54 % 63 % 41 % 1019,5 hPa 0,0 l/m 0,0 km/h (0 Bft) 0,47 h 0,00 h 0,0 km/h (0 Bft)
22.10.2012 18:00 23,2 C 20,3 C 0,0 UV-I 0,0 C 55 % 73 % 0 % 1020,1 hPa 0,0 l/m 0,0 km/h (0 Bft) 0,00 h 0,00 h 0,0 km/h (0 Bft)
22.10.2012 19:00 22,6 C 17,7 C 0,0 UV-I 0,0 C 57 % 80 % 0 % 1020,7 hPa 0,0 l/m 0,0 km/h (0 Bft) 0,00 h 0,00 h 0,0 km/h (0 Bft)
22.10.2012 20:00 22,1 C 15,6 C 0,0 UV-I 0,0 C 58 % 85 % 0 % 1020,9 hPa 0,0 l/m 0,0 km/h (0 Bft) 0,00 h 0,00 h 0,0 km/h (0 Bft)
22.10.2012 21:00 21,8 C 14,2 C 0,0 UV-I 0,0 C 59 % 89 % 0 % 1021,3 hPa 0,0 l/m 0,0 km/h (0 Bft) 0,00 h 0,00 h 0,0 km/h (0 Bft)
22.10.2012 22:00 21,6 C 13,4 C 0,0 UV-I 0,0 C 59 % 92 % 0 % 1021,6 hPa 0,0 l/m 0,0 km/h (0 Bft) 0,00 h 0,00 h 0,0 km/h (0 Bft)
22.10.2012 23:00 21,4 C 12,7 C 0,0 UV-I 0,0 C 60 % 93 % 0 % 1021,7 hPa 0,0 l/m 0,0 km/h (0 Bft) 0,00 h 0,00 h 0,0 km/h (0 Bft)
23.10.2012 00:00 21,1 C 12,1 C 0,0 UV-I 0,0 C 60 % 94 % 0 % 1022,0 hPa 0,0 l/m 0,0 km/h (0 Bft) 0,00 h 0,00 h 0,0 km/h (0 Bft)
23.10.2012 01:00 20,8 C 11,5 C 0,0 UV-I 0,0 C 60 % 95 % 0 % 1021,9 hPa 0,0 l/m 0,0 km/h (0 Bft) 0,00 h 0,00 h 0,0 km/h (0 Bft)
23.10.2012 02:00 20,6 C 10,9 C 0,0 UV-I 0,0 C 60 % 95 % 0 % 1022,2 hPa 0,0 l/m 0,0 km/h (0 Bft) 0,00 h 0,00 h 0,0 km/h (0 Bft)
23.10.2012 03:00 20,4 C 10,4 C 0,0 UV-I 0,0 C 60 % 96 % 0 % 1022,4 hPa 0,0 l/m 0,0 km/h (0 Bft) 0,00 h 0,00 h 0,0 km/h (0 Bft)
23.10.2012 04:00 20,3 C 10,4 C 0,0 UV-I 0,0 C 60 % 96 % 0 % 1021,9 hPa 0,0 l/m 0,0 km/h (0 Bft) 0,00 h 0,00 h 0,0 km/h (0 Bft)
23.10.2012 05:00 20,2 C 10,2 C 0,0 UV-I 0,0 C 60 % 96 % 0 % 1022,4 hPa 0,0 l/m 0,0 km/h (0 Bft) 0,00 h 0,00 h 0,0 km/h (0 Bft)
23.10.2012 06:00 20,1 C 10,9 C 0,0 UV-I 0,0 C 60 % 97 % 0 % 1022,4 hPa 0,0 l/m 1,0 km/h (0 Bft) 0,00 h 0,00 h 1,9 km/h (1 Bft)
23.10.2012 07:00 20,0 C 11,0 C 0,0 UV-I 0,0 C 61 % 97 % 0 % 1022,5 hPa 0,0 l/m 0,9 km/h (0 Bft) 0,00 h 0,00 h 1,9 km/h (1 Bft)
23.10.2012 08:00 20,0 C 10,7 C 0,0 UV-I 0,0 C 60 % 97 % 0 % 1023,3 hPa 0,0 l/m 0,5 km/h (0 Bft) 0,00 h 0,00 h 0,3 km/h (0 Bft)
23.10.2012 09:00 19,9 C 10,9 C 0,0 UV-I 0,6 C 60 % 97 % 17 % 1023,7 hPa 0,0 l/m 2,3 km/h (1 Bft) 0,17 h 0,00 h 4,8 km/h (1 Bft)
23.10.2012 10:00 20,0 C 12,2 C 0,4 UV-I 4,4 C 60 % 96 % 98 % 1023,8 hPa 0,0 l/m 4,4 km/h (1 Bft) 1,00 h 0,03 h 6,7 km/h (2 Bft)
23.10.2012 11:00 20,2 C 13,9 C 0,8 UV-I 6,3 C 59 % 91 % 100 % 1023,7 hPa 0,0 l/m 5,5 km/h (1 Bft) 1,00 h 0,00 h 9,6 km/h (2 Bft)
23.10.2012 12:00 21,0 C 15,9 C 1,3 UV-I 5,9 C 58 % 83 % 100 % 1023,6 hPa 0,0 l/m 5,0 km/h (1 Bft) 1,00 h 0,00 h 7,1 km/h (2 Bft)
23.10.2012 13:00 21,8 C 17,0 C 2,1 UV-I 6,4 C 57 % 77 % 100 % 1023,7 hPa 0,0 l/m 3,7 km/h (1 Bft) 1,00 h 0,00 h 5,6 km/h (1 Bft)
23.10.2012 14:00 22,8 C 18,1 C 1,8 UV-I 6,0 C 54 % 73 % 100 % 1024,7 hPa 0,0 l/m 2,0 km/h (1 Bft) 1,00 h 0,00 h 3,0 km/h (1 Bft)
23.10.2012 15:00 23,6 C 18,8 C 1,1 UV-I 5,0 C 52 % 71 % 100 % 1023,2 hPa 0,0 l/m 2,4 km/h (1 Bft) 1,00 h 0,00 h 3,3 km/h (1 Bft)
23.10.2012 16:00 24,0 C 18,9 C 0,4 UV-I 3,2 C 51 % 70 % 82 % 1022,3 hPa 0,0 l/m 1,4 km/h (1 Bft) 0,83 h 0,00 h 2,3 km/h (1 Bft)
23.10.2012 17:00 23,5 C 17,6 C 0,0 UV-I 0,7 C 51 % 74 % 19 % 1022,2 hPa 0,0 l/m 0,2 km/h (0 Bft) 0,30 h 0,00 h 0,2 km/h (0 Bft)
23.10.2012 18:00 22,7 C 15,9 C 0,0 UV-I 0,0 C 53 % 79 % 0 % 1022,2 hPa 0,0 l/m 0,0 km/h (0 Bft) 0,00 h 0,00 h 0,0 km/h (0 Bft)
23.10.2012 19:00 22,0 C 14,0 C 0,0 UV-I 0,0 C 55 % 85 % 0 % 1022,4 hPa 0,0 l/m 0,0 km/h (0 Bft) 0,00 h 0,00 h 0,0 km/h (0 Bft)
23.10.2012 20:00 21,5 C 12,8 C 0,0 UV-I 0,0 C 56 % 89 % 0 % 1022,3 hPa 0,0 l/m 0,0 km/h (0 Bft) 0,00 h 0,00 h 0,0 km/h (0 Bft)
23.10.2012 21:00 21,1 C 12,0 C 0,0 UV-I 0,0 C 57 % 91 % 0 % 1022,6 hPa 0,0 l/m 0,0 km/h (0 Bft) 0,00 h 0,00 h 0,0 km/h (0 Bft)
23.10.2012 22:00 20,8 C 11,5 C 0,0 UV-I 0,0 C 58 % 93 % 0 % 1022,6 hPa 0,0 l/m 0,0 km/h (0 Bft) 0,00 h 0,00 h 0,0 km/h (0 Bft)
23.10.2012 23:00 20,6 C 11,2 C 0,0 UV-I 0,0 C 58 % 93 % 0 % 1022,3 hPa 0,0 l/m 0,0 km/h (0 Bft) 0,00 h 0,00 h 0,0 km/h (0 Bft)
24.10.2012 00:00 20,4 C 11,1 C 0,0 UV-I 0,0 C 58 % 93 % 0 % 1022,4 hPa 0,0 l/m 0,0 km/h (0 Bft) 0,00 h 0,00 h 0,3 km/h (0 Bft)
24.10.2012 01:00 20,3 C 11,2 C 0,0 UV-I 0,0 C 58 % 93 % 0 % 1022,3 hPa 0,0 l/m 0,4 km/h (0 Bft) 0,00 h 0,00 h 0,3 km/h (0 Bft)
24.10.2012 02:00 20,2 C 11,3 C 0,0 UV-I 0,0 C 58 % 93 % 0 % 1021,8 hPa 0,0 l/m 0,0 km/h (0 Bft) 0,00 h 0,00 h 0,2 km/h (0 Bft)
24.10.2012 03:00 20,1 C 10,8 C 0,0 UV-I 0,0 C 58 % 93 % 0 % 1021,9 hPa 0,0 l/m 0,1 km/h (0 Bft) 0,00 h 0,00 h 0,3 km/h (0 Bft)
24.10.2012 04:00 20,0 C 10,5 C 0,0 UV-I 0,0 C 58 % 94 % 0 % 1021,6 hPa 0,0 l/m 0,0 km/h (0 Bft) 0,00 h 0,00 h 0,0 km/h (0 Bft)
24.10.2012 05:00 19,9 C 10,0 C 0,0 UV-I 0,0 C 59 % 95 % 0 % 1020,8 hPa 0,0 l/m 0,0 km/h (0 Bft) 0,00 h 0,00 h 0,0 km/h (0 Bft)
24.10.2012 06:00 19,8 C 9,6 C 0,0 UV-I 0,0 C 58 % 95 % 0 % 1020,3 hPa 0,0 l/m 0,3 km/h (0 Bft) 0,00 h 0,00 h 0,2 km/h (0 Bft)
24.10.2012 07:00 19,6 C 9,3 C 0,0 UV-I 0,0 C 58 % 96 % 0 % 1020,2 hPa 0,0 l/m 0,1 km/h (0 Bft) 0,00 h 0,00 h 0,0 km/h (0 Bft)
24.10.2012 08:00 19,6 C 9,5 C 0,0 UV-I 0,0 C 58 % 96 % 0 % 1020,0 hPa 0,0 l/m 0,7 km/h (0 Bft) 0,00 h 0,00 h 1,0 km/h (0 Bft)
24.10.2012 09:00 19,6 C 10,0 C 0,0 UV-I 0,8 C 59 % 97 % 24 % 1020,5 hPa 0,0 l/m 1,3 km/h (1 Bft) 0,23 h 0,00 h 1,7 km/h (1 Bft)
24.10.2012 10:00 19,7 C 11,3 C 0,3 UV-I 5,1 C 59 % 96 % 100 % 1020,8 hPa 0,0 l/m 1,7 km/h (1 Bft) 1,00 h 0,00 h 3,9 km/h (1 Bft)
24.10.2012 11:00 19,9 C 12,8 C 0,7 UV-I 6,7 C 58 % 92 % 100 % 1020,8 hPa 0,0 l/m 1,5 km/h (1 Bft) 1,00 h 0,00 h 2,1 km/h (1 Bft)
24.10.2012 12:00 20,2 C 14,2 C 1,2 UV-I 7,1 C 58 % 86 % 100 % 1020,7 hPa 0,0 l/m 2,5 km/h (1 Bft) 1,00 h 0,00 h 3,8 km/h (1 Bft)
24.10.2012 13:00 21,2 C 15,5 C 1,7 UV-I 7,1 C 57 % 82 % 100 % 1020,2 hPa 0,0 l/m 2,7 km/h (1 Bft) 1,00 h 0,00 h 4,2 km/h (1 Bft)
24.10.2012 14:00 22,4 C 16,0 C 1,5 UV-I 6,0 C 55 % 80 % 100 % 1020,7 hPa 0,0 l/m 5,5 km/h (1 Bft) 1,00 h 0,00 h 8,0 km/h (2 Bft)
24.10.2012 15:00 23,1 C 15,9 C 0,9 UV-I 3,5 C 53 % 82 % 96 % 1019,3 hPa 0,0 l/m 9,6 km/h (2 Bft) 1,00 h 0,00 h 12,8 km/h (3 Bft)
24.10.2012 16:00 23,2 C 15,1 C 0,3 UV-I 2,1 C 52 % 84 % 61 % 1018,5 hPa 0,0 l/m 9,7 km/h (2 Bft) 0,53 h 0,00 h 12,2 km/h (2 Bft)
24.10.2012 17:00 22,9 C 13,6 C 0,0 UV-I 0,4 C 53 % 88 % 11 % 1018,4 hPa 0,0 l/m 11,1 km/h (2 Bft) 0,00 h 0,00 h 14,8 km/h (3 Bft)
24.10.2012 18:00 22,0 C 12,4 C 0,0 UV-I 0,0 C 55 % 92 % 0 % 1018,3 hPa 0,0 l/m 6,5 km/h (2 Bft) 0,00 h 0,00 h 7,8 km/h (2 Bft)
24.10.2012 19:00 21,2 C 12,1 C 0,0 UV-I 0,0 C 57 % 95 % 0 % 1018,6 hPa 0,0 l/m 6,3 km/h (2 Bft) 0,00 h 0,00 h 8,3 km/h (2 Bft)
24.10.2012 20:00 20,7 C 12,0 C 0,0 UV-I 0,0 C 58 % 95 % 0 % 1018,4 hPa 0,0 l/m 3,4 km/h (1 Bft) 0,00 h 0,00 h 5,1 km/h (1 Bft)
24.10.2012 21:00 20,5 C 11,8 C 0,0 UV-I 0,0 C 59 % 95 % 0 % 1018,2 hPa 0,0 l/m 2,4 km/h (1 Bft) 0,00 h 0,00 h 3,2 km/h (1 Bft)
24.10.2012 22:00 20,3 C 11,5 C 0,0 UV-I 0,0 C 59 % 95 % 0 % 1018,1 hPa 0,0 l/m 1,5 km/h (1 Bft) 0,00 h 0,00 h 4,1 km/h (1 Bft)
24.10.2012 23:00 20,2 C 11,1 C 0,0 UV-I 0,0 C 59 % 96 % 0 % 1017,7 hPa 0,0 l/m 2,7 km/h (1 Bft) 0,00 h 0,00 h 4,2 km/h (1 Bft)
25.10.2012 00:00 20,1 C 10,8 C 0,0 UV-I 0,0 C 59 % 96 % 0 % 1018,2 hPa 0,0 l/m 0,5 km/h (0 Bft) 0,00 h 0,00 h 1,1 km/h (1 Bft)
25.10.2012 01:00 20,0 C 10,8 C 0,0 UV-I 0,0 C 60 % 96 % 0 % 1017,7 hPa 0,0 l/m 2,8 km/h (1 Bft) 0,00 h 0,00 h 4,4 km/h (1 Bft)
25.10.2012 02:00 19,9 C 10,6 C 0,0 UV-I 0,0 C 60 % 96 % 0 % 1017,3 hPa 0,0 l/m 1,3 km/h (1 Bft) 0,00 h 0,00 h 2,6 km/h (1 Bft)
25.10.2012 03:00 19,8 C 10,3 C 0,0 UV-I 0,0 C 60 % 96 % 0 % 1017,1 hPa 0,0 l/m 1,4 km/h (1 Bft) 0,00 h 0,00 h 1,6 km/h (1 Bft)
25.10.2012 04:00 19,7 C 10,1 C 0,0 UV-I 0,0 C 60 % 97 % 0 % 1017,2 hPa 0,0 l/m 3,6 km/h (1 Bft) 0,00 h 0,00 h 4,1 km/h (1 Bft)
25.10.2012 05:00 19,6 C 10,0 C 0,0 UV-I 0,0 C 60 % 98 % 0 % 1016,4 hPa 0,0 l/m 1,9 km/h (1 Bft) 0,00 h 0,00 h 3,0 km/h (1 Bft)
25.10.2012 06:00 19,6 C 9,9 C 0,0 UV-I 0,0 C 60 % 98 % 0 % 1016,1 hPa 0,0 l/m 1,0 km/h (0 Bft) 0,00 h 0,00 h 1,3 km/h (1 Bft)
25.10.2012 07:00 19,6 C 10,0 C 0,0 UV-I 0,0 C 60 % 98 % 0 % 1015,5 hPa 0,0 l/m 0,4 km/h (0 Bft) 0,00 h 0,03 h 0,4 km/h (0 Bft)
25.10.2012 08:00 19,5 C 10,1 C 0,0 UV-I 0,0 C 60 % 98 % 0 % 1015,3 hPa 0,0 l/m 0,1 km/h (0 Bft) 0,00 h 0,00 h 0,4 km/h (0 Bft)
25.10.2012 09:00 19,5 C 10,1 C 0,0 UV-I 0,0 C 60 % 98 % 0 % 1015,9 hPa 0,0 l/m 1,2 km/h (1 Bft) 0,00 h 0,00 h 2,2 km/h (1 Bft)
25.10.2012 10:00 19,5 C 10,2 C 0,0 UV-I 0,0 C 60 % 98 % 1 % 1015,9 hPa 0,0 l/m 2,3 km/h (1 Bft) 0,00 h 0,00 h 4,1 km/h (1 Bft)
25.10.2012 11:00 19,5 C 10,3 C 0,0 UV-I 0,8 C 60 % 98 % 23 % 1015,8 hPa 0,0 l/m 1,9 km/h (1 Bft) 0,00 h 0,00 h 3,0 km/h (1 Bft)
25.10.2012 12:00 19,6 C 10,5 C 0,0 UV-I 0,5 C 60 % 98 % 15 % 1015,6 hPa 0,0 l/m 3,3 km/h (1 Bft) 0,00 h 0,00 h 5,1 km/h (1 Bft)
25.10.2012 13:00 19,6 C 11,0 C 0,1 UV-I 1,2 C 59 % 98 % 34 % 1015,1 hPa 0,0 l/m 1,3 km/h (1 Bft) 0,00 h 0,00 h 2,0 km/h (1 Bft)
25.10.2012 14:00 19,6 C 11,4 C 0,0 UV-I 0,5 C 59 % 96 % 15 % 1014,9 hPa 0,0 l/m 4,5 km/h (1 Bft) 0,00 h 0,00 h 7,2 km/h (2 Bft)
25.10.2012 15:00 19,6 C 11,6 C 0,0 UV-I 0,4 C 59 % 94 % 11 % 1014,0 hPa 0,0 l/m 4,7 km/h (1 Bft) 0,00 h 0,00 h 6,4 km/h (2 Bft)
25.10.2012 16:00 19,6 C 11,4 C 0,0 UV-I 0,0 C 59 % 94 % 0 % 1013,9 hPa 0,0 l/m 6,8 km/h (2 Bft) 0,00 h 0,03 h 9,0 km/h (2 Bft)
25.10.2012 17:00 19,4 C 10,8 C 0,0 UV-I 0,0 C 59 % 94 % 0 % 1013,7 hPa 0,0 l/m 5,0 km/h (1 Bft) 0,00 h 0,00 h 5,9 km/h (2 Bft)
25.10.2012 18:00 19,4 C 10,9 C 0,0 UV-I 0,0 C 59 % 93 % 0 % 1013,7 hPa 0,0 l/m 0,7 km/h (0 Bft) 0,00 h 0,00 h 1,0 km/h (0 Bft)
25.10.2012 19:00 19,3 C 10,7 C 0,0 UV-I 0,0 C 59 % 93 % 0 % 1013,7 hPa 0,0 l/m 0,0 km/h (0 Bft) 0,00 h 0,00 h 0,2 km/h (0 Bft)
25.10.2012 20:00 19,2 C 10,6 C 0,0 UV-I 0,0 C 59 % 93 % 0 % 1014,0 hPa 0,0 l/m 4,7 km/h (1 Bft) 0,00 h 0,27 h 7,4 km/h (2 Bft)
25.10.2012 21:00 19,2 C 10,3 C 0,0 UV-I 0,0 C 58 % 88 % 0 % 1014,1 hPa 0,0 l/m 8,6 km/h (2 Bft) 0,00 h 0,13 h 10,9 km/h (2 Bft)
25.10.2012 22:00 19,2 C 10,0 C 0,0 UV-I 0,0 C 57 % 84 % 0 % 1014,7 hPa 0,0 l/m 8,5 km/h (2 Bft) 0,00 h 0,07 h 11,0 km/h (2 Bft)
25.10.2012 23:00 19,1 C 9,5 C 0,0 UV-I 0,0 C 57 % 84 % 0 % 1014,5 hPa 0,0 l/m 9,4 km/h (2 Bft) 0,00 h 0,40 h 11,9 km/h (2 Bft)
26.10.2012 00:00 19,0 C 9,2 C 0,0 UV-I 0,0 C 56 % 83 % 0 % 1014,6 hPa 0,0 l/m 8,3 km/h (2 Bft) 0,00 h 0,00 h 10,2 km/h (2 Bft)
26.10.2012 01:00 18,9 C 9,1 C 0,0 UV-I 0,0 C 55 % 83 % 0 % 1014,7 hPa 0,0 l/m 4,9 km/h (1 Bft) 0,00 h 0,00 h 6,3 km/h (2 Bft)
26.10.2012 02:00 18,9 C 8,8 C 0,0 UV-I 0,0 C 55 % 84 % 0 % 1014,6 hPa 0,0 l/m 1,8 km/h (1 Bft) 0,00 h 0,00 h 2,3 km/h (1 Bft)
26.10.2012 03:00 18,8 C 8,7 C 0,0 UV-I 0,0 C 55 % 86 % 0 % 1014,5 hPa 0,0 l/m 2,7 km/h (1 Bft) 0,00 h 0,00 h 3,8 km/h (1 Bft)
26.10.2012 04:00 18,8 C 8,5 C 0,0 UV-I 0,0 C 55 % 85 % 0 % 1013,9 hPa 0,0 l/m 8,6 km/h (2 Bft) 0,00 h 0,00 h 11,6 km/h (2 Bft)
26.10.2012 05:00 18,7 C 8,3 C 0,0 UV-I 0,0 C 54 % 83 % 0 % 1013,5 hPa 0,0 l/m 5,7 km/h (1 Bft) 0,00 h 0,03 h 8,1 km/h (2 Bft)
26.10.2012 06:00 18,7 C 8,0 C 0,0 UV-I 0,0 C 53 % 82 % 0 % 1013,4 hPa 0,0 l/m 2,8 km/h (1 Bft) 0,00 h 0,00 h 3,9 km/h (1 Bft)
26.10.2012 07:00 18,6 C 7,7 C 0,0 UV-I 0,0 C 52 % 79 % 0 % 1012,9 hPa 0,0 l/m 3,1 km/h (1 Bft) 0,00 h 0,00 h 4,0 km/h (1 Bft)
26.10.2012 08:00 18,5 C 7,4 C 0,0 UV-I 0,0 C 52 % 80 % 0 % 1012,6 hPa 0,0 l/m 2,2 km/h (1 Bft) 0,00 h 0,00 h 3,5 km/h (1 Bft)
26.10.2012 09:00 18,5 C 7,2 C 0,0 UV-I 0,0 C 54 % 81 % 0 % 1012,2 hPa 0,0 l/m 3,4 km/h (1 Bft) 0,00 h 0,00 h 5,2 km/h (1 Bft)
26.10.2012 10:00 18,6 C 7,4 C 0,0 UV-I 0,4 C 53 % 81 % 11 % 1011,8 hPa 0,0 l/m 3,4 km/h (1 Bft) 0,00 h 0,00 h 5,0 km/h (1 Bft)
26.10.2012 11:00 18,6 C 7,6 C 0,0 UV-I 0,6 C 52 % 80 % 18 % 1011,3 hPa 0,0 l/m 3,8 km/h (1 Bft) 0,00 h 0,00 h 5,5 km/h (1 Bft)
26.10.2012 12:00 18,6 C 7,7 C 0,0 UV-I 0,4 C 51 % 80 % 10 % 1010,5 hPa 0,0 l/m 3,9 km/h (1 Bft) 0,00 h 0,00 h 5,1 km/h (1 Bft)
26.10.2012 13:00 18,6 C 7,7 C 0,0 UV-I 0,3 C 52 % 81 % 10 % 1009,3 hPa 0,0 l/m 3,5 km/h (1 Bft) 0,00 h 0,00 h 5,6 km/h (1 Bft)
26.10.2012 14:00 18,5 C 7,5 C 0,0 UV-I 0,0 C 52 % 81 % 0 % 1008,6 hPa 0,0 l/m 3,0 km/h (1 Bft) 0,00 h 0,00 h 4,6 km/h (1 Bft)
26.10.2012 15:00 18,3 C 6,8 C 0,0 UV-I 0,0 C 51 % 84 % 0 % 1008,1 hPa 0,0 l/m 0,8 km/h (0 Bft) 0,00 h 0,13 h 1,1 km/h (0 Bft)
26.10.2012 16:00 18,2 C 6,6 C 0,0 UV-I 0,0 C 51 % 83 % 0 % 1007,2 hPa 0,0 l/m 3,6 km/h (1 Bft) 0,00 h 0,00 h 4,4 km/h (1 Bft)
26.10.2012 17:00 18,1 C 6,5 C 0,0 UV-I 0,0 C 50 % 79 % 0 % 1006,5 hPa 0,0 l/m 5,8 km/h (2 Bft) 0,00 h 0,00 h 8,2 km/h (2 Bft)
26.10.2012 18:00 18,0 C 6,2 C 0,0 UV-I 0,0 C 49 % 79 % 0 % 1005,9 hPa 0,0 l/m 9,3 km/h (2 Bft) 0,00 h 0,00 h 12,1 km/h (2 Bft)
26.10.2012 19:00 17,9 C 5,6 C 0,0 UV-I 0,0 C 49 % 81 % 0 % 1005,6 hPa 0,0 l/m 8,4 km/h (2 Bft) 0,00 h 0,00 h 10,6 km/h (2 Bft)
26.10.2012 20:00 17,8 C 5,5 C 0,0 UV-I 0,0 C 49 % 83 % 0 % 1005,0 hPa 0,0 l/m 8,5 km/h (2 Bft) 0,00 h 0,00 h 11,4 km/h (2 Bft)
26.10.2012 21:00 17,8 C 5,5 C 0,0 UV-I 0,0 C 48 % 81 % 0 % 1004,4 hPa 0,0 l/m 8,5 km/h (2 Bft) 0,00 h 0,00 h 12,0 km/h (2 Bft)
26.10.2012 22:00 17,7 C 5,3 C 0,0 UV-I 0,0 C 48 % 79 % 0 % 1004,0 hPa 0,0 l/m 9,2 km/h (2 Bft) 0,00 h 0,00 h 11,2 km/h (2 Bft)
26.10.2012 23:00 17,6 C 4,6 C 0,0 UV-I 0,0 C 47 % 79 % 0 % 1003,5 hPa 0,0 l/m 11,1 km/h (2 Bft) 0,00 h 0,00 h 13,8 km/h (3 Bft)
27.10.2012 00:00 17,5 C 4,1 C 0,0 UV-I 0,0 C 47 % 80 % 0 % 1003,0 hPa 0,0 l/m 9,9 km/h (2 Bft) 0,00 h 0,00 h 12,8 km/h (3 Bft)
27.10.2012 01:00 17,3 C 3,5 C 0,0 UV-I 0,0 C 47 % 80 % 0 % 1002,6 hPa 0,0 l/m 9,5 km/h (2 Bft) 0,00 h 0,00 h 12,3 km/h (3 Bft)
27.10.2012 02:00 17,2 C 2,8 C 0,0 UV-I 0,0 C 46 % 81 % 0 % 1002,6 hPa 0,0 l/m 11,7 km/h (2 Bft) 0,00 h 0,00 h 18,1 km/h (3 Bft)
27.10.2012 03:00 17,0 C 2,2 C 0,0 UV-I 0,0 C 46 % 82 % 0 % 1002,2 hPa 0,0 l/m 7,4 km/h (2 Bft) 0,00 h 0,00 h 8,8 km/h (2 Bft)
27.10.2012 04:00 16,9 C 1,4 C 0,0 UV-I 0,0 C 46 % 84 % 0 % 1002,0 hPa 0,0 l/m 7,4 km/h (2 Bft) 0,00 h 0,00 h 10,3 km/h (2 Bft)
27.10.2012 05:00 16,7 C 0,9 C 0,0 UV-I 0,0 C 45 % 85 % 0 % 1002,3 hPa 0,0 l/m 7,9 km/h (2 Bft) 0,00 h 0,00 h 9,5 km/h (2 Bft)
27.10.2012 06:00 16,6 C 0,7 C 0,0 UV-I 0,0 C 45 % 84 % 0 % 1002,3 hPa 0,0 l/m 8,4 km/h (2 Bft) 0,00 h 0,00 h 10,1 km/h (2 Bft)
27.10.2012 07:00 16,4 C 0,5 C 0,0 UV-I 0,0 C 45 % 82 % 0 % 1002,9 hPa 0,0 l/m 8,2 km/h (2 Bft) 0,00 h 0,00 h 10,2 km/h (2 Bft)
27.10.2012 08:00 16,2 C -0,3 C 0,0 UV-I 0,0 C 44 % 83 % 0 % 1003,8 hPa 0,0 l/m 4,0 km/h (1 Bft) 0,00 h 0,00 h 5,6 km/h (1 Bft)
27.10.2012 09:00 15,7 C 0,0 C 0,0 UV-I 0,1 C 43 % 84 % 2 % 1004,4 hPa 0,0 l/m 6,4 km/h (2 Bft) 0,00 h 0,00 h 9,1 km/h (2 Bft)
27.10.2012 10:00 15,4 C 1,5 C 0,2 UV-I 4,5 C 42 % 80 % 94 % 1005,3 hPa 0,0 l/m 9,4 km/h (2 Bft) 1,00 h 0,00 h 11,9 km/h (2 Bft)
27.10.2012 11:00 15,4 C 3,4 C 0,3 UV-I 5,9 C 41 % 70 % 100 % 1005,9 hPa 0,0 l/m 12,0 km/h (2 Bft) 1,00 h 0,00 h 15,6 km/h (3 Bft)
27.10.2012 12:00 15,5 C 5,2 C 0,9 UV-I 6,2 C 40 % 55 % 100 % 1006,6 hPa 0,0 l/m 12,1 km/h (2 Bft) 1,00 h 0,00 h 16,7 km/h (3 Bft)
27.10.2012 13:00 16,1 C 6,3 C 1,7 UV-I 5,8 C 38 % 46 % 100 % 1006,9 hPa 0,0 l/m 13,3 km/h (3 Bft) 1,00 h 0,00 h 16,6 km/h (3 Bft)
27.10.2012 14:00 17,9 C 6,9 C 1,6 UV-I 5,0 C 34 % 43 % 100 % 1009,9 hPa 0,0 l/m 15,2 km/h (3 Bft) 1,00 h 0,00 h 18,3 km/h (3 Bft)
27.10.2012 15:00 19,3 C 7,2 C 0,9 UV-I 4,1 C 30 % 40 % 97 % 1008,6 hPa 0,0 l/m 16,2 km/h (3 Bft) 1,00 h 0,00 h 19,3 km/h (3 Bft)
27.10.2012 16:00 20,1 C 7,1 C 0,2 UV-I 3,6 C 28 % 41 % 99 % 1008,1 hPa 0,0 l/m 13,3 km/h (3 Bft) 1,00 h 0,00 h 17,5 km/h (3 Bft)
27.10.2012 17:00 19,5 C 6,4 C 0,0 UV-I 0,2 C 29 % 53 % 6 % 1009,0 hPa 0,0 l/m 11,3 km/h (2 Bft) 0,10 h 0,00 h 14,5 km/h (3 Bft)
27.10.2012 18:00 17,8 C 5,1 C 0,0 UV-I 0,0 C 32 % 63 % 0 % 1009,9 hPa 0,0 l/m 2,9 km/h (1 Bft) 0,00 h 0,00 h 3,6 km/h (1 Bft)
27.10.2012 19:00 16,6 C 4,4 C 0,0 UV-I 0,0 C 35 % 69 % 0 % 1011,0 hPa 0,0 l/m 4,7 km/h (1 Bft) 0,00 h 0,00 h 5,6 km/h (1 Bft)
27.10.2012 20:00 16,0 C 3,0 C 0,0 UV-I 0,0 C 37 % 72 % 0 % 1011,7 hPa 0,0 l/m 0,2 km/h (0 Bft) 0,00 h 0,00 h 0,6 km/h (0 Bft)
27.10.2012 21:00 15,5 C 1,4 C 0,0 UV-I 0,0 C 39 % 78 % 0 % 1012,5 hPa 0,0 l/m 0,0 km/h (0 Bft) 0,00 h 0,07 h 0,0 km/h (0 Bft)
27.10.2012 22:00 15,2 C 0,3 C 0,0 UV-I 0,0 C 39 % 81 % 0 % 1013,3 hPa 0,0 l/m 0,0 km/h (0 Bft) 0,00 h 0,03 h 0,0 km/h (0 Bft)
27.10.2012 23:00 14,9 C -0,3 C 0,0 UV-I 0,0 C 40 % 84 % 0 % 1013,7 hPa 0,0 l/m 0,0 km/h (0 Bft) 0,00 h 0,00 h 0,0 km/h (0 Bft)
28.10.2012 00:00 14,7 C -0,6 C 0,0 UV-I 0,0 C 40 % 86 % 0 % 1013,8 hPa 0,0 l/m 0,0 km/h (0 Bft) 0,00 h 0,03 h 0,0 km/h (0 Bft)
28.10.2012 01:00 14,4 C -0,9 C 0,0 UV-I 0,0 C 41 % 87 % 0 % 1014,0 hPa 0,0 l/m 0,0 km/h (0 Bft) 0,00 h 0,00 h 0,0 km/h (0 Bft)
28.10.2012 02:00 14,2 C -1,1 C 0,0 UV-I 0,0 C 41 % 89 % 0 % 1014,3 hPa 0,0 l/m 0,0 km/h (0 Bft) 0,00 h 0,00 h 0,0 km/h (0 Bft)
28.10.2012 03:00 13,9 C -1,6 C 0,0 UV-I 0,0 C 40 % 90 % 0 % 1014,5 hPa 0,0 l/m 0,0 km/h (0 Bft) 0,00 h 0,00 h 0,0 km/h (0 Bft)
28.10.2012 04:00 13,7 C -1,9 C 0,0 UV-I 0,0 C 41 % 90 % 0 % 1014,7 hPa 0,0 l/m 0,0 km/h (0 Bft) 0,00 h 0,03 h 0,0 km/h (0 Bft)
28.10.2012 05:00 13,6 C -2,2 C 0,0 UV-I 0,0 C 41 % 91 % 0 % 1014,6 hPa 0,0 l/m 0,0 km/h (0 Bft) 0,00 h 0,00 h 0,0 km/h (0 Bft)
28.10.2012 06:00 13,3 C -2,5 C 0,0 UV-I 0,0 C 41 % 91 % 0 % 1014,5 hPa 0,0 l/m 0,0 km/h (0 Bft) 0,00 h 0,00 h 0,0 km/h (0 Bft)
28.10.2012 07:00 13,2 C -2,6 C 0,0 UV-I 0,0 C 41 % 92 % 0 % 1015,1 hPa 0,0 l/m 0,0 km/h (0 Bft) 0,00 h 0,00 h 0,0 km/h (0 Bft)
28.10.2012 08:00 13,2 C -2,0 C 0,0 UV-I 0,1 C 41 % 92 % 2 % 1015,5 hPa 0,0 l/m 0,0 km/h (0 Bft) 0,00 h 0,00 h 0,0 km/h (0 Bft)
28.10.2012 09:00 13,2 C 0,2 C 0,2 UV-I 7,1 C 42 % 93 % 98 % 1016,0 hPa 0,1 l/m 0,4 km/h (0 Bft) 1,00 h 0,00 h 1,1 km/h (1 Bft)
28.10.2012 10:00 13,3 C 2,6 C 0,6 UV-I 9,8 C 44 % 93 % 100 % 1016,2 hPa 0,0 l/m 1,1 km/h (0 Bft) 1,00 h 0,00 h 3,6 km/h (1 Bft)
28.10.2012 11:00 13,6 C 4,8 C 1,0 UV-I 8,9 C 44 % 87 % 100 % 1016,3 hPa 0,0 l/m 2,5 km/h (1 Bft) 1,00 h 0,00 h 4,7 km/h (1 Bft)
28.10.2012 12:00 14,0 C 6,0 C 1,6 UV-I 8,2 C 45 % 82 % 100 % 1016,0 hPa 0,0 l/m 2,9 km/h (1 Bft) 1,00 h 0,00 h 4,1 km/h (1 Bft)
28.10.2012 13:00 15,6 C 7,9 C 1,6 UV-I 8,3 C 43 % 72 % 100 % 1018,2 hPa 0,0 l/m 2,8 km/h (1 Bft) 1,00 h 0,00 h 4,5 km/h (1 Bft)
28.10.2012 14:00 17,3 C 9,1 C 0,9 UV-I 7,1 C 37 % 59 % 100 % 1016,0 hPa 0,0 l/m 2,4 km/h (1 Bft) 1,00 h 0,00 h 2,4 km/h (1 Bft)
28.10.2012 15:00 18,1 C 9,0 C 0,2 UV-I 5,8 C 33 % 56 % 100 % 1014,7 hPa 0,0 l/m 1,7 km/h (1 Bft) 1,00 h 0,00 h 3,4 km/h (1 Bft)
28.10.2012 16:00 17,7 C 7,3 C 0,0 UV-I 0,5 C 33 % 60 % 15 % 1014,7 hPa 0,0 l/m 0,5 km/h (0 Bft) 0,17 h 0,00 h 0,6 km/h (0 Bft)
28.10.2012 17:00 16,2 C 5,7 C 0,0 UV-I 0,0 C 35 % 65 % 0 % 1014,8 hPa 0,0 l/m 0,0 km/h (0 Bft) 0,00 h 0,00 h 0,0 km/h (0 Bft)
28.10.2012 18:00 15,1 C 3,7 C 0,0 UV-I 0,0 C 38 % 72 % 0 % 1015,4 hPa 0,0 l/m 0,0 km/h (0 Bft) 0,00 h 0,00 h 0,0 km/h (0 Bft)
28.10.2012 19:00 14,5 C 2,6 C 0,0 UV-I 0,0 C 40 % 78 % 0 % 1015,6 hPa 0,0 l/m 0,2 km/h (0 Bft) 0,00 h 0,00 h 0,6 km/h (0 Bft)
28.10.2012 20:00 14,3 C 2,0 C 0,0 UV-I 0,0 C 42 % 82 % 0 % 1015,6 hPa 0,0 l/m 0,2 km/h (0 Bft) 0,00 h 0,00 h 0,1 km/h (0 Bft)
28.10.2012 21:00 14,4 C 1,7 C 0,0 UV-I 0,0 C 42 % 84 % 0 % 1015,6 hPa 0,0 l/m 0,6 km/h (0 Bft) 0,00 h 0,00 h 1,9 km/h (1 Bft)
28.10.2012 22:00 14,4 C 1,4 C 0,0 UV-I 0,0 C 42 % 84 % 0 % 1015,6 hPa 0,0 l/m 0,9 km/h (0 Bft) 0,00 h 0,00 h 1,7 km/h (1 Bft)
28.10.2012 23:00 14,4 C 1,0 C 0,0 UV-I 0,0 C 42 % 85 % 0 % 1015,9 hPa 0,0 l/m 2,7 km/h (1 Bft) 0,00 h 0,00 h 4,3 km/h (1 Bft)
Min-Datum _ 28.10.12 28.10.12 22.10.12 22.10.12 27.10.12 27.10.12 22.10.12 27.10.12 - 22.10.12 - - 22.10.12
_ Min-Zeit 07:18 07:06 00:00 00:00 16:08 16:04 00:00 04:26 - 01:16 - - 00:06
Minimum _ 13,1 C -2,7 C 0,0 UV-I 0,0 C 28 % 36 % 0 % 1001,9 hPa - 0,0 km/h (0 Bft) - - 0,0 km/h (0 Bft)
Max-Datum _ 23.10.12 22.10.12 22.10.12 28.10.12 22.10.12 25.10.12 22.10.12 23.10.12 28.10.12 27.10.12 22.10.12 23.10.12 27.10.12
_ Max-Zeit 16:26 16:48 13:24 10:58 00:00 11:52 09:44 14:26 09:36 15:42 09:36 10:24 12:58
Maximum _ 24,1 C 23,9 C 2,7 UV-I 10,5 C 61 % 99 % 100 % 1025,2 hPa 0,1 l/m 20,9 km/h
W (4 Bft)
0,03 h 0,03 h 43,0 km/h
W-SW (6 Bft)
Durchschnitt _ 19,0 C 9,2 C 0,2 UV-I 1,3 C 52 % 84 % 22 % 1015,7 hPa #0,1 l/m 3,2 km/h (1 Bft) #35:08 h #1:18 h 4,5 km/h (1 Bft)
© 2012 W. Hausmann